This is the latest recevied weather packets stored in our database for station/object KJ4AJP. If no packets are shown the sender has not sent any weather packets the latest 10 day(s).
| Time | Temp. | Humidity | Pressure | Rain* | Wind** | Luminosity | Snow |
|---|---|---|---|---|---|---|---|
| 1777914201 | 26.11° C | 38% | 1011.6 hPa | 0 mm | - | 780 W/m² | - |
| 1777913897 | 26.67° C | 38% | 1011.5 hPa | 0 mm | - | 763 W/m² | - |
| 1777913594 | 26.11° C | 41% | 1011.5 hPa | 0 mm | - | 763 W/m² | - |
| 1777913290 | 26.11° C | 39% | 1011.6 hPa | 0 mm | - | 750 W/m² | - |
| 1777912987 | 26.11° C | 40% | 1011.6 hPa | 0 mm | - | 742 W/m² | - |
| 1777912683 | 26.11° C | 41% | 1011.7 hPa | 0 mm | - | 734 W/m² | - |
| 1777912379 | 26.11° C | 40% | 1011.7 hPa | 0 mm | - | 728 W/m² | - |
| 1777912075 | 25.56° C | 44% | 1011.6 hPa | 0 mm | - | 729 W/m² | - |
| 1777911771 | 25.56° C | 44% | 1011.7 hPa | 0 mm | - | 704 W/m² | - |
| 1777911468 | 25° C | 45% | 1011.8 hPa | 0 mm | - | 527 W/m² | - |
| 1777911165 | 25° C | 45% | 1012 hPa | 0 mm | - | 674 W/m² | - |
| 1777910863 | 25° C | 44% | 1012 hPa | 0 mm | - | 496 W/m² | - |
| 1777910559 | 25° C | 43% | 1012 hPa | 0 mm | - | 633 W/m² | - |
| 1777910256 | 25° C | 44% | 1012.2 hPa | 0 mm | - | 639 W/m² | - |
| 1777909953 | 24.44° C | 46% | 1012.3 hPa | 0 mm | - | 497 W/m² | - |
| 1777909650 | 24.44° C | 46% | 1012.4 hPa | 0 mm | - | 656 W/m² | - |
| 1777909348 | 24.44° C | 47% | 1012.5 hPa | 0 mm | - | 555 W/m² | - |
| 1777909045 | 23.89° C | 46% | 1012.5 hPa | 0 mm | - | 606 W/m² | - |
| 1777908742 | 23.89° C | 47% | 1012.6 hPa | 0 mm | - | 570 W/m² | - |
| 1777908440 | 23.89° C | 47% | 1012.5 hPa | 0 mm | - | 600 W/m² | - |
| 1777908136 | 23.33° C | 52% | 1012.5 hPa | 0 mm | - | 568 W/m² | - |
| 1777907832 | 23.33° C | 50% | 1012.5 hPa | 0 mm | - | 552 W/m² | - |
| 1777907528 | 23.33° C | 50% | 1012.5 hPa | 0 mm | - | 438 W/m² | - |
| 1777907224 | 22.78° C | 52% | 1012.7 hPa | 0 mm | - | 492 W/m² | - |
| 1777906921 | 22.78° C | 51% | 1012.8 hPa | 0 mm | - | 472 W/m² | - |
* Rain latest hour (hover to see other rain measurements)
** Current wind speed in m/s (hover to see current wind gust speed)